createdAt,value
2023-01-22T00:00:04.875Z,0
2023-01-22T00:01:19.271Z,0
2023-01-22T00:02:33.678Z,0
2023-01-22T00:03:47.993Z,0
2023-01-22T00:05:02.293Z,0
2023-01-22T00:06:16.566Z,0
2023-01-22T00:07:30.976Z,0
2023-01-22T00:08:45.291Z,0
2023-01-22T00:09:59.580Z,0
2023-01-22T00:11:13.864Z,0
2023-01-22T00:12:28.268Z,0
2023-01-22T00:13:42.586Z,0
2023-01-22T00:14:56.875Z,0
2023-01-22T00:16:11.162Z,0
2023-01-22T00:17:25.569Z,0
2023-01-22T00:18:39.888Z,0
2023-01-22T00:19:54.176Z,0
2023-01-22T00:21:08.452Z,0
2023-01-22T00:22:22.860Z,0
2023-01-22T00:23:37.189Z,0
2023-01-22T00:24:51.464Z,0
2023-01-22T00:26:05.752Z,0
2023-01-22T00:27:20.167Z,0
2023-01-22T00:28:34.490Z,0
2023-01-22T00:29:48.755Z,0
2023-01-22T00:31:03.046Z,0
2023-01-22T00:32:17.460Z,0
2023-01-22T00:33:31.782Z,0
2023-01-22T00:34:46.000Z,0
2023-01-22T00:36:00.332Z,0
2023-01-22T00:37:14.740Z,0
2023-01-22T00:38:29.076Z,0
2023-01-22T00:39:43.356Z,0
2023-01-22T00:40:57.633Z,0
2023-01-22T00:42:12.037Z,0
2023-01-22T00:43:26.370Z,0
2023-01-22T00:44:40.651Z,0
2023-01-22T00:45:54.930Z,0
2023-01-22T00:47:09.397Z,0
2023-01-22T00:48:23.732Z,0
2023-01-22T00:49:38.085Z,0
2023-01-22T00:50:52.410Z,0
2023-01-22T00:52:05.763Z,0
2023-01-22T00:53:20.085Z,0
2023-01-22T00:54:34.367Z,0
2023-01-22T00:55:48.658Z,0
2023-01-22T00:57:03.070Z,0
2023-01-22T00:58:17.380Z,0
2023-01-22T00:59:31.666Z,0
2023-01-22T01:00:45.939Z,0
2023-01-22T01:02:00.348Z,0
2023-01-22T01:03:14.684Z,0
2023-01-22T01:04:28.970Z,0
2023-01-22T01:05:43.238Z,0
2023-01-22T01:06:57.656Z,0
2023-01-22T01:08:11.978Z,0
2023-01-22T01:09:26.263Z,0
2023-01-22T01:10:40.497Z,1
2023-01-22T01:11:54.852Z,0
2023-01-22T01:13:09.185Z,0
2023-01-22T01:14:23.453Z,0
2023-01-22T01:15:37.733Z,0
2023-01-22T01:16:52.139Z,0
2023-01-22T01:18:06.473Z,0
2023-01-22T01:19:20.747Z,0
2023-01-22T01:20:35.033Z,0
2023-01-22T01:21:49.444Z,0
2023-01-22T01:23:03.832Z,0
2023-01-22T01:24:17.182Z,0
2023-01-22T01:25:31.452Z,0
2023-01-22T01:26:45.877Z,0
2023-01-22T01:28:00.194Z,0
2023-01-22T01:29:14.482Z,0
2023-01-22T01:30:28.755Z,0
2023-01-22T01:31:43.109Z,1
2023-01-22T01:32:57.443Z,0
2023-01-22T01:34:11.713Z,0
2023-01-22T01:35:25.999Z,0
2023-01-22T01:36:40.405Z,0
2023-01-22T01:37:54.739Z,0
2023-01-22T01:39:09.016Z,0
2023-01-22T01:40:23.298Z,0
2023-01-22T01:41:37.707Z,0
2023-01-22T01:42:52.018Z,0
2023-01-22T01:44:06.313Z,0
2023-01-22T01:45:20.596Z,0
2023-01-22T01:46:34.992Z,0
2023-01-22T01:47:49.326Z,0
2023-01-22T01:49:03.595Z,0
2023-01-22T01:50:17.887Z,0
2023-01-22T01:51:32.288Z,0
2023-01-22T01:52:46.619Z,0
2023-01-22T01:54:00.901Z,0
2023-01-22T01:55:15.229Z,0
2023-01-22T01:56:29.636Z,0
2023-01-22T01:57:43.984Z,0
2023-01-22T01:58:57.342Z,0
2023-01-22T02:00:11.615Z,0
2023-01-22T02:01:26.017Z,0
2023-01-22T02:02:40.259Z,1
2023-01-22T02:03:54.489Z,1
2023-01-22T02:05:08.727Z,1
2023-01-22T02:06:22.952Z,1
2023-01-22T02:07:37.354Z,0
2023-01-22T02:08:51.682Z,0
2023-01-22T02:10:05.958Z,0
2023-01-22T02:11:20.237Z,0
2023-01-22T02:12:34.645Z,0
2023-01-22T02:13:48.976Z,0
2023-01-22T02:15:03.265Z,0
2023-01-22T02:16:17.543Z,0
2023-01-22T02:17:31.895Z,1
2023-01-22T02:18:46.212Z,0
2023-01-22T02:20:00.500Z,0
2023-01-22T02:21:14.776Z,0
2023-01-22T02:22:29.199Z,0
2023-01-22T02:23:43.513Z,0
2023-01-22T02:24:57.804Z,0
2023-01-22T02:26:12.077Z,0
2023-01-22T02:27:26.488Z,0
2023-01-22T02:28:40.733Z,1
2023-01-22T02:29:55.012Z,1
2023-01-22T02:31:09.293Z,1
2023-01-22T02:32:22.588Z,1
2023-01-22T02:33:36.881Z,0
2023-01-22T02:34:51.176Z,0
2023-01-22T02:36:05.419Z,1
2023-01-22T02:37:19.756Z,0
2023-01-22T02:38:34.037Z,1
2023-01-22T02:39:48.274Z,1
2023-01-22T02:41:02.509Z,1
2023-01-22T02:42:16.717Z,1
2023-01-22T02:43:31.042Z,1
2023-01-22T02:44:45.278Z,1
2023-01-22T02:45:59.499Z,1
2023-01-22T02:47:13.788Z,0
2023-01-22T02:48:28.000Z,1
2023-01-22T02:49:42.360Z,0
2023-01-22T02:50:56.690Z,0
2023-01-22T02:52:10.960Z,0
2023-01-22T02:53:25.194Z,1
2023-01-22T02:54:39.522Z,1
2023-01-22T02:55:53.767Z,1
2023-01-22T02:57:07.982Z,1
2023-01-22T02:58:22.308Z,0
2023-01-22T02:59:36.554Z,1
2023-01-22T03:00:50.911Z,0
2023-01-22T03:02:05.219Z,0
2023-01-22T03:03:19.566Z,0
2023-01-22T03:04:32.960Z,0
2023-01-22T03:05:47.288Z,0
2023-01-22T03:07:00.644Z,0
2023-01-22T03:08:14.916Z,0
2023-01-22T03:09:29.328Z,0
2023-01-22T03:10:43.665Z,0
2023-01-22T03:13:12.213Z,0
2023-01-22T03:14:26.631Z,0
2023-01-22T03:15:40.000Z,0
2023-01-22T03:16:55.192Z,1
2023-01-22T03:18:09.416Z,1
2023-01-22T03:19:23.726Z,1
2023-01-22T03:20:37.963Z,1
2023-01-22T03:21:52.177Z,1
2023-01-22T03:23:06.419Z,1
2023-01-22T03:24:20.648Z,1
2023-01-22T03:25:34.951Z,1
2023-01-22T03:26:49.191Z,1
2023-01-22T03:28:03.410Z,1
2023-01-22T03:29:17.646Z,1
2023-01-22T03:30:31.867Z,1
2023-01-22T03:31:46.175Z,1
2023-01-22T03:33:00.400Z,1
2023-01-22T03:34:14.638Z,1
2023-01-22T03:35:28.870Z,1
2023-01-22T03:36:43.152Z,0
2023-01-22T03:37:57.567Z,1
2023-01-22T03:39:11.838Z,1
2023-01-22T03:40:25.144Z,1
2023-01-22T03:41:39.371Z,1
2023-01-22T03:42:53.666Z,1
2023-01-22T03:44:07.906Z,1
2023-01-22T03:45:22.138Z,1
2023-01-22T03:46:36.361Z,1
2023-01-22T03:47:50.596Z,1
2023-01-22T03:50:19.125Z,1
2023-01-22T03:51:33.367Z,1
2023-01-22T03:52:47.579Z,1
2023-01-22T03:54:01.818Z,1
2023-01-22T03:55:16.119Z,1
2023-01-22T03:56:30.350Z,1
2023-01-22T03:57:44.592Z,1
2023-01-22T03:58:58.809Z,1
2023-01-22T04:00:13.046Z,1
2023-01-22T04:01:27.344Z,1
2023-01-22T04:02:41.591Z,1
2023-01-22T04:03:55.804Z,1
2023-01-22T04:05:10.040Z,1
2023-01-22T04:06:24.272Z,1
2023-01-22T04:07:38.565Z,1
2023-01-22T04:08:52.809Z,1
2023-01-22T04:10:07.039Z,1
2023-01-22T04:11:21.318Z,1
2023-01-22T04:12:34.662Z,1
2023-01-22T04:13:48.939Z,1
2023-01-22T04:16:16.472Z,1
2023-01-22T04:17:30.777Z,1
2023-01-22T04:18:45.006Z,1
2023-01-22T04:19:59.241Z,1
2023-01-22T04:21:13.472Z,1
2023-01-22T04:22:27.691Z,1
2023-01-22T04:23:41.994Z,1
2023-01-22T04:24:56.244Z,1
2023-01-22T04:26:10.458Z,1
2023-01-22T04:27:24.689Z,1
2023-01-22T04:28:38.928Z,1
2023-01-22T04:29:53.223Z,1
2023-01-22T04:31:07.455Z,1
2023-01-22T04:32:21.696Z,1
2023-01-22T04:33:35.914Z,1
2023-01-22T04:34:50.150Z,1
2023-01-22T04:36:04.449Z,1
2023-01-22T04:37:18.687Z,1
2023-01-22T04:38:32.907Z,1
2023-01-22T04:39:47.140Z,1
2023-01-22T04:41:01.367Z,1
2023-01-22T04:42:15.682Z,1
2023-01-22T04:43:29.911Z,1
2023-01-22T04:44:44.149Z,1
2023-01-22T04:45:58.423Z,1
2023-01-22T04:47:12.706Z,1
2023-01-22T04:48:27.005Z,1
2023-01-22T04:49:41.293Z,1
2023-01-22T04:50:54.601Z,1
2023-01-22T04:52:08.837Z,1
2023-01-22T04:53:23.142Z,1
2023-01-22T04:54:37.374Z,1
2023-01-22T04:55:51.617Z,1
2023-01-22T04:57:05.897Z,0
2023-01-22T04:58:20.165Z,0
2023-01-22T04:59:34.588Z,0
2023-01-22T05:00:48.817Z,1
2023-01-22T05:02:03.108Z,0
2023-01-22T05:03:17.422Z,0
2023-01-22T05:04:31.721Z,0
2023-01-22T05:05:46.121Z,0
2023-01-22T05:07:00.443Z,0
2023-01-22T05:08:14.723Z,0
2023-01-22T05:09:29.135Z,0
2023-01-22T05:10:43.539Z,0
2023-01-22T05:11:57.786Z,1
2023-01-22T05:13:12.015Z,1
2023-01-22T05:14:26.229Z,1
2023-01-22T05:15:40.466Z,1
2023-01-22T05:16:54.765Z,1
2023-01-22T05:18:09.058Z,0
2023-01-22T05:19:23.289Z,1
2023-01-22T05:20:37.513Z,1
2023-01-22T05:21:51.748Z,1
2023-01-22T05:23:06.043Z,1
2023-01-22T05:24:20.277Z,1
2023-01-22T05:25:34.506Z,1
2023-01-22T05:26:48.745Z,1
2023-01-22T05:28:02.985Z,1
2023-01-22T05:30:31.567Z,1
2023-01-22T05:31:45.786Z,1
2023-01-22T05:33:00.074Z,0
2023-01-22T05:34:14.349Z,0
2023-01-22T05:35:28.764Z,0
2023-01-22T05:36:43.008Z,1
2023-01-22T05:39:11.453Z,1
2023-01-22T05:40:25.700Z,1
2023-01-22T05:41:40.006Z,1
2023-01-22T05:42:54.296Z,0
2023-01-22T05:44:08.580Z,0
2023-01-22T05:45:22.813Z,1
2023-01-22T05:46:37.106Z,1
2023-01-22T05:47:51.341Z,1
2023-01-22T05:49:05.566Z,1
2023-01-22T05:50:19.942Z,1
2023-01-22T05:51:34.181Z,1
2023-01-22T05:52:48.472Z,1
2023-01-22T05:54:02.000Z,1
2023-01-22T05:55:16.948Z,1
2023-01-22T05:56:31.159Z,1
2023-01-22T05:57:45.394Z,1
2023-01-22T05:58:59.704Z,1
2023-01-22T06:00:13.928Z,1
2023-01-22T06:01:28.161Z,1
2023-01-22T06:02:42.397Z,1
2023-01-22T06:03:56.619Z,1
2023-01-22T06:05:10.916Z,1
2023-01-22T06:06:25.156Z,1
2023-01-22T06:07:39.393Z,1
2023-01-22T06:08:53.608Z,1
2023-01-22T06:10:07.838Z,1
2023-01-22T06:11:22.159Z,1
2023-01-22T06:12:36.447Z,0
2023-01-22T06:13:50.731Z,0
2023-01-22T06:15:04.970Z,1
2023-01-22T06:16:19.265Z,1
2023-01-22T06:17:33.511Z,1
2023-01-22T06:18:47.732Z,1
2023-01-22T06:20:02.018Z,1
2023-01-22T06:21:16.366Z,0
2023-01-22T06:22:30.779Z,0
2023-01-22T06:23:45.103Z,0
2023-01-22T06:24:58.468Z,0
2023-01-22T06:26:12.749Z,0
2023-01-22T06:27:27.142Z,0
2023-01-22T06:28:41.395Z,1
2023-01-22T06:29:55.622Z,1
2023-01-22T06:31:09.845Z,1
2023-01-22T06:32:24.074Z,1
2023-01-22T06:33:38.474Z,0
2023-01-22T06:34:52.795Z,0
2023-01-22T06:36:07.035Z,1
2023-01-22T06:37:21.266Z,1
2023-01-22T06:38:35.489Z,1
2023-01-22T06:39:49.797Z,1
2023-01-22T06:41:04.030Z,1
2023-01-22T06:42:18.377Z,1
2023-01-22T06:43:32.605Z,1
2023-01-22T06:44:46.838Z,1
2023-01-22T06:46:01.139Z,1
2023-01-22T06:47:15.374Z,1
2023-01-22T06:48:29.661Z,0
2023-01-22T06:49:43.940Z,0
2023-01-22T06:50:58.348Z,0
2023-01-22T06:52:12.676Z,0
2023-01-22T06:53:26.962Z,0
2023-01-22T06:54:41.177Z,2
2023-01-22T06:55:55.547Z,0
2023-01-22T06:57:09.778Z,1
2023-01-22T06:58:24.065Z,0
2023-01-22T06:59:38.299Z,2
2023-01-22T07:00:52.521Z,1
2023-01-22T07:02:06.817Z,2
2023-01-22T07:04:35.289Z,6
2023-01-22T07:05:49.524Z,3
2023-01-22T07:07:03.747Z,5
2023-01-22T07:08:18.039Z,7
2023-01-22T07:09:32.279Z,10
2023-01-22T07:10:46.520Z,9
2023-01-22T07:12:00.736Z,10
2023-01-22T07:13:14.957Z,11
2023-01-22T07:14:29.281Z,17
2023-01-22T07:15:43.510Z,17
2023-01-22T07:16:57.746Z,24
2023-01-22T07:18:11.964Z,23
2023-01-22T07:19:26.201Z,25
2023-01-22T07:20:40.495Z,31
2023-01-22T07:21:54.735Z,37
2023-01-22T07:23:08.954Z,41
2023-01-22T07:24:23.192Z,44
2023-01-22T07:25:37.425Z,39
2023-01-22T07:26:51.727Z,44
2023-01-22T07:28:06.025Z,56
2023-01-22T07:29:19.357Z,68
2023-01-22T07:30:32.647Z,70
2023-01-22T07:31:46.883Z,63
2023-01-22T07:33:01.127Z,63
2023-01-22T07:34:15.355Z,65
2023-01-22T07:35:29.576Z,63
2023-01-22T07:36:43.871Z,67
2023-01-22T07:37:58.108Z,73
2023-01-22T07:39:12.347Z,82
2023-01-22T07:40:26.561Z,80
2023-01-22T07:41:40.800Z,77
2023-01-22T07:42:55.100Z,71
2023-01-22T07:44:09.348Z,70
2023-01-22T07:45:23.574Z,69
2023-01-22T07:46:37.801Z,84
2023-01-22T07:47:52.026Z,93
2023-01-22T07:49:06.333Z,97
2023-01-22T07:50:20.559Z,94
2023-01-22T07:51:34.803Z,98
2023-01-22T07:52:49.023Z,107
2023-01-22T07:54:03.242Z,107
2023-01-22T07:55:17.540Z,99
2023-01-22T07:56:31.787Z,106
2023-01-22T07:57:46.017Z,126
2023-01-22T07:59:00.242Z,139
2023-01-22T08:00:14.469Z,135
2023-01-22T08:01:28.837Z,137
2023-01-22T08:02:43.128Z,140
2023-01-22T08:03:57.404Z,150
2023-01-22T08:05:10.701Z,157
2023-01-22T08:06:25.004Z,172
2023-01-22T08:07:39.251Z,165
2023-01-22T08:08:53.476Z,170
2023-01-22T08:10:07.705Z,189
2023-01-22T08:11:21.934Z,182
2023-01-22T08:12:36.224Z,200
2023-01-22T08:13:50.460Z,197
2023-01-22T08:15:04.697Z,229
2023-01-22T08:16:18.931Z,220
2023-01-22T08:17:33.157Z,218
2023-01-22T08:18:47.457Z,226
2023-01-22T08:20:01.693Z,246
2023-01-22T08:21:15.918Z,238
2023-01-22T08:22:30.146Z,249
2023-01-22T08:23:44.383Z,263
2023-01-22T08:24:58.676Z,250
2023-01-22T08:26:12.925Z,242
2023-01-22T08:27:27.145Z,277
2023-01-22T08:28:41.364Z,270
2023-01-22T08:29:55.602Z,288
2023-01-22T08:31:09.911Z,289
2023-01-22T08:33:38.375Z,313
2023-01-22T08:34:52.596Z,297
2023-01-22T08:36:06.894Z,297
2023-01-22T08:37:21.177Z,340
2023-01-22T08:38:35.469Z,339
2023-01-22T08:39:48.761Z,367
2023-01-22T08:41:03.006Z,353
2023-01-22T08:42:17.306Z,413
2023-01-22T08:43:31.533Z,434
2023-01-22T08:44:45.761Z,416
2023-01-22T08:45:59.993Z,411
2023-01-22T08:47:14.231Z,430
2023-01-22T08:48:28.522Z,420
2023-01-22T08:49:42.768Z,420
2023-01-22T08:50:56.983Z,476
2023-01-22T08:52:11.215Z,527
2023-01-22T08:53:25.458Z,547
2023-01-22T08:54:39.749Z,598
2023-01-22T08:55:53.993Z,616
2023-01-22T08:57:08.212Z,646
2023-01-22T08:58:22.449Z,654
2023-01-22T08:59:36.683Z,628
2023-01-22T09:00:50.977Z,744
2023-01-22T09:02:05.210Z,845
2023-01-22T09:03:19.438Z,935
2023-01-22T09:04:33.680Z,998
2023-01-22T09:05:47.906Z,1230
2023-01-22T09:07:02.207Z,1027
2023-01-22T09:08:16.444Z,996
2023-01-22T09:09:30.670Z,1067
2023-01-22T09:10:44.962Z,859
2023-01-22T09:11:58.262Z,823
2023-01-22T09:13:12.502Z,788
2023-01-22T09:14:26.715Z,712
2023-01-22T09:15:40.957Z,694
2023-01-22T09:16:55.170Z,667
2023-01-22T09:18:09.482Z,727
2023-01-22T09:19:23.730Z,762
2023-01-22T09:20:37.945Z,899
2023-01-22T09:21:52.171Z,993
2023-01-22T09:23:06.397Z,1002
2023-01-22T09:24:20.711Z,1137
2023-01-22T09:25:34.953Z,1294
2023-01-22T09:26:49.168Z,1408
2023-01-22T09:28:03.392Z,1409
2023-01-22T09:29:17.622Z,1466
2023-01-22T09:30:31.936Z,1285
2023-01-22T09:31:46.170Z,1387
2023-01-22T09:33:00.390Z,1464
2023-01-22T09:34:14.634Z,1423
2023-01-22T09:35:28.845Z,1361
2023-01-22T09:36:43.151Z,1258
2023-01-22T09:37:57.408Z,1309
2023-01-22T09:39:11.635Z,1291
2023-01-22T09:40:25.863Z,1333
2023-01-22T09:41:40.073Z,1322
2023-01-22T09:42:54.441Z,1390
2023-01-22T09:44:08.732Z,1392
2023-01-22T09:45:22.026Z,1354
2023-01-22T09:46:36.255Z,1285
2023-01-22T09:47:50.543Z,1430
2023-01-22T09:49:04.788Z,1595
2023-01-22T09:50:19.025Z,1571
2023-01-22T09:51:33.248Z,1536
2023-01-22T09:52:47.478Z,1578
2023-01-22T09:54:01.771Z,1603
2023-01-22T09:55:16.018Z,1749
2023-01-22T09:56:30.253Z,1870
2023-01-22T09:57:44.470Z,1890
2023-01-22T09:58:58.700Z,1779
2023-01-22T10:00:13.008Z,2140
2023-01-22T10:01:27.238Z,2213
2023-01-22T10:02:41.462Z,2447
2023-01-22T10:03:55.698Z,2836
2023-01-22T10:05:09.935Z,2546
2023-01-22T10:07:38.475Z,2768
2023-01-22T10:08:52.687Z,2665
2023-01-22T10:10:06.930Z,2698
2023-01-22T10:11:21.140Z,2417
2023-01-22T10:12:35.441Z,3057
2023-01-22T10:13:49.689Z,3033
2023-01-22T10:15:03.913Z,3221
2023-01-22T10:16:18.197Z,3426
2023-01-22T10:17:31.544Z,3590
2023-01-22T10:18:45.808Z,3266
2023-01-22T10:19:59.107Z,3239
2023-01-22T10:21:13.348Z,3369
2023-01-22T10:22:27.644Z,3309
2023-01-22T10:23:41.874Z,2762
2023-01-22T10:24:56.098Z,2594
2023-01-22T10:26:10.334Z,2727
2023-01-22T10:27:24.559Z,2604
2023-01-22T10:28:38.851Z,2928
2023-01-22T10:29:53.112Z,3025
2023-01-22T10:31:07.335Z,2798
2023-01-22T10:32:21.553Z,3104
2023-01-22T10:34:50.079Z,3326
2023-01-22T10:36:04.317Z,3324
2023-01-22T10:37:18.554Z,3551
2023-01-22T10:38:32.777Z,3829
2023-01-22T10:41:01.307Z,4012
2023-01-22T10:42:15.549Z,3566
2023-01-22T10:43:29.779Z,3920
2023-01-22T10:44:43.998Z,3972
2023-01-22T10:45:58.233Z,3999
2023-01-22T10:47:12.535Z,3871
2023-01-22T10:48:26.768Z,3542
2023-01-22T10:49:41.004Z,3556
2023-01-22T10:50:55.271Z,3228
2023-01-22T10:52:08.608Z,3334
2023-01-22T10:53:22.901Z,2978
2023-01-22T10:54:36.186Z,3317
2023-01-22T10:55:50.419Z,3147
2023-01-22T10:57:04.720Z,3634
2023-01-22T10:58:18.955Z,3589
2023-01-22T10:59:33.178Z,3343
2023-01-22T11:00:47.413Z,3764
2023-01-22T11:02:01.646Z,4191
2023-01-22T11:03:15.938Z,4079
2023-01-22T11:04:30.193Z,3895
2023-01-22T11:05:44.402Z,3911
2023-01-22T11:06:58.634Z,3954
2023-01-22T11:08:12.858Z,4122
2023-01-22T11:09:27.155Z,3611
2023-01-22T11:10:41.411Z,3609
2023-01-22T11:11:55.635Z,3712
2023-01-22T11:13:09.868Z,3804
2023-01-22T11:14:24.091Z,3701
2023-01-22T11:15:38.381Z,3668
2023-01-22T11:16:52.000Z,3395
2023-01-22T11:18:06.862Z,3039
2023-01-22T11:19:21.081Z,2884
2023-01-22T11:20:35.313Z,2985
2023-01-22T11:21:49.621Z,3016
2023-01-22T11:23:03.856Z,2930
2023-01-22T11:24:18.085Z,2702
2023-01-22T11:25:32.370Z,2807
2023-01-22T11:26:45.663Z,2769
2023-01-22T11:27:59.906Z,2659
2023-01-22T11:29:14.131Z,2663
2023-01-22T11:30:28.367Z,2874
2023-01-22T11:31:42.586Z,2861
2023-01-22T11:32:56.893Z,2825
2023-01-22T11:34:11.127Z,2870
2023-01-22T11:35:25.357Z,3230
2023-01-22T11:36:39.588Z,3404
2023-01-22T11:37:53.809Z,3338
2023-01-22T11:39:08.107Z,3214
2023-01-22T11:40:22.349Z,2713
2023-01-22T11:41:36.584Z,2434
2023-01-22T11:42:50.796Z,2279
2023-01-22T11:44:05.021Z,2161
2023-01-22T11:45:19.338Z,2465
2023-01-22T11:46:33.576Z,2089
2023-01-22T11:47:47.809Z,1949
2023-01-22T11:49:02.024Z,1939
2023-01-22T11:50:16.245Z,1978
2023-01-22T11:51:30.555Z,1731
2023-01-22T11:52:44.799Z,1751
2023-01-22T11:53:59.017Z,1434
2023-01-22T11:55:13.258Z,1400
2023-01-22T11:56:27.484Z,1455
2023-01-22T11:57:41.829Z,1512
2023-01-22T11:58:56.114Z,1406
2023-01-22T12:00:09.411Z,1337
2023-01-22T12:01:23.647Z,1242
2023-01-22T12:02:37.949Z,1548
2023-01-22T12:03:52.179Z,1438
2023-01-22T12:05:06.414Z,1470
2023-01-22T12:06:20.641Z,1562
2023-01-22T12:07:34.872Z,1557
2023-01-22T12:08:49.162Z,1982
2023-01-22T12:10:03.410Z,1682
2023-01-22T12:11:17.641Z,1793
2023-01-22T12:12:31.859Z,1803
2023-01-22T12:13:46.076Z,1985
2023-01-22T12:15:00.379Z,1987
2023-01-22T12:16:14.626Z,2037
2023-01-22T12:17:28.845Z,2070
2023-01-22T12:18:43.089Z,2239
2023-01-22T12:19:57.302Z,2290
2023-01-22T12:21:11.613Z,2705
2023-01-22T12:22:25.840Z,2440
2023-01-22T12:23:40.078Z,2472
2023-01-22T12:24:54.296Z,2419
2023-01-22T12:26:08.520Z,2293
2023-01-22T12:27:22.831Z,1961
2023-01-22T12:28:37.063Z,1820
2023-01-22T12:29:51.295Z,1746
2023-01-22T12:31:05.588Z,1570
2023-01-22T12:32:18.912Z,1652
2023-01-22T12:33:33.202Z,1812
2023-01-22T12:34:47.476Z,1851
2023-01-22T12:36:01.000Z,1880
2023-01-22T12:37:15.059Z,1910
2023-01-22T12:38:29.314Z,1956
2023-01-22T12:39:43.539Z,2033
2023-01-22T12:40:57.765Z,2083
2023-01-22T12:42:11.993Z,2306
2023-01-22T12:43:26.291Z,2467
2023-01-22T12:44:40.531Z,2718
2023-01-22T12:45:54.758Z,3360
2023-01-22T12:47:08.970Z,3161
2023-01-22T12:48:23.199Z,3423
2023-01-22T12:49:37.515Z,3026
2023-01-22T12:50:51.753Z,2612
2023-01-22T12:52:05.967Z,2867
2023-01-22T12:54:34.428Z,2761
2023-01-22T12:55:48.739Z,2499
2023-01-22T12:57:02.969Z,1939
2023-01-22T12:58:17.194Z,1905
2023-01-22T12:59:31.433Z,1721
2023-01-22T13:00:45.661Z,1777
2023-01-22T13:01:59.944Z,1458
2023-01-22T13:04:28.410Z,1381
2023-01-22T13:05:42.643Z,1224
2023-01-22T13:06:56.868Z,1096
2023-01-22T13:08:11.231Z,1184
2023-01-22T13:09:25.514Z,1169
2023-01-22T13:10:38.809Z,1200
2023-01-22T13:11:53.037Z,1159
2023-01-22T13:13:07.339Z,1357
2023-01-22T13:14:21.579Z,1659
2023-01-22T13:15:35.822Z,1750
2023-01-22T13:16:50.042Z,1601
2023-01-22T13:18:04.265Z,1735
2023-01-22T13:19:18.575Z,1606
2023-01-22T13:20:32.816Z,1806
2023-01-22T13:21:47.030Z,1857
2023-01-22T13:23:01.268Z,1529
2023-01-22T13:24:15.482Z,1582
2023-01-22T13:25:29.792Z,1469
2023-01-22T13:26:44.024Z,1424
2023-01-22T13:27:58.251Z,1432
2023-01-22T13:29:12.488Z,1382
2023-01-22T13:30:26.710Z,1500
2023-01-22T13:31:41.007Z,1398
2023-01-22T13:32:55.258Z,1102
2023-01-22T13:34:09.481Z,1049
2023-01-22T13:35:23.711Z,1215
2023-01-22T13:36:37.936Z,1235
2023-01-22T13:37:52.229Z,1274
2023-01-22T13:39:06.474Z,1015
2023-01-22T13:40:20.698Z,990
2023-01-22T13:41:34.989Z,874
2023-01-22T13:42:48.323Z,822
2023-01-22T13:44:02.610Z,789
2023-01-22T13:45:15.909Z,727
2023-01-22T13:46:30.122Z,776
2023-01-22T13:47:44.428Z,682
2023-01-22T13:48:58.663Z,694
2023-01-22T13:50:12.902Z,782
2023-01-22T13:51:27.133Z,791
2023-01-22T13:52:41.347Z,741
2023-01-22T13:53:55.656Z,815
2023-01-22T13:55:09.892Z,813
2023-01-22T13:56:24.129Z,853
2023-01-22T13:57:38.352Z,949
2023-01-22T13:58:52.566Z,924
2023-01-22T14:00:06.874Z,762
2023-01-22T14:01:21.116Z,704
2023-01-22T14:02:35.352Z,797
2023-01-22T14:03:49.566Z,824
2023-01-22T14:05:03.800Z,807
2023-01-22T14:07:32.337Z,672
2023-01-22T14:08:46.558Z,639
2023-01-22T14:10:00.782Z,606
2023-01-22T14:11:15.020Z,594
2023-01-22T14:12:29.325Z,585
2023-01-22T14:13:43.552Z,591
2023-01-22T14:14:57.785Z,575
2023-01-22T14:17:26.360Z,533
2023-01-22T14:18:40.649Z,617
2023-01-22T14:19:54.945Z,587
2023-01-22T14:21:08.233Z,638
2023-01-22T14:22:22.454Z,718
2023-01-22T14:23:36.755Z,673
2023-01-22T14:24:51.005Z,697
2023-01-22T14:27:19.462Z,692
2023-01-22T14:28:33.683Z,770
2023-01-22T14:29:47.979Z,748
2023-01-22T14:31:02.218Z,804
2023-01-22T14:32:16.455Z,662
2023-01-22T14:33:30.669Z,693
2023-01-22T14:34:44.890Z,735
2023-01-22T14:35:59.208Z,608
2023-01-22T14:37:13.445Z,731
2023-01-22T14:38:27.672Z,884
2023-01-22T14:39:41.894Z,891
2023-01-22T14:40:56.122Z,1037
2023-01-22T14:42:10.419Z,894
2023-01-22T14:44:38.885Z,841
2023-01-22T14:45:53.108Z,761
2023-01-22T14:47:07.350Z,800
2023-01-22T14:48:21.636Z,674
2023-01-22T14:49:35.895Z,703
2023-01-22T14:50:50.114Z,645
2023-01-22T14:52:04.394Z,540
2023-01-22T14:53:17.734Z,540
2023-01-22T14:54:32.006Z,466
2023-01-22T14:55:45.310Z,548
2023-01-22T14:56:59.532Z,480
2023-01-22T14:58:13.829Z,430
2023-01-22T15:00:42.298Z,457
2023-01-22T15:01:56.521Z,432
2023-01-22T15:03:10.751Z,426
2023-01-22T15:04:25.052Z,357
2023-01-22T15:05:39.305Z,361
2023-01-22T15:06:53.533Z,356
2023-01-22T15:08:07.742Z,332
2023-01-22T15:09:21.975Z,404
2023-01-22T15:10:36.278Z,317
2023-01-22T15:11:50.527Z,327
2023-01-22T15:13:04.736Z,365
2023-01-22T15:14:18.963Z,336
2023-01-22T15:15:33.193Z,360
2023-01-22T15:16:47.503Z,338
2023-01-22T15:18:01.743Z,309
2023-01-22T15:19:15.961Z,263
2023-01-22T15:20:30.201Z,267
2023-01-22T15:21:44.416Z,240
2023-01-22T15:22:58.726Z,237
2023-01-22T15:24:12.973Z,213
2023-01-22T15:25:27.190Z,204
2023-01-22T15:26:41.478Z,199
2023-01-22T15:27:54.784Z,191
2023-01-22T15:29:09.022Z,180
2023-01-22T15:30:23.241Z,191
2023-01-22T15:31:37.472Z,197
2023-01-22T15:32:51.706Z,190
2023-01-22T15:34:05.992Z,175
2023-01-22T15:35:20.247Z,139
2023-01-22T15:36:34.466Z,125
2023-01-22T15:37:48.698Z,125
2023-01-22T15:39:02.925Z,117
2023-01-22T15:40:17.217Z,92
2023-01-22T15:42:45.694Z,85
2023-01-22T15:43:59.908Z,96
2023-01-22T15:45:14.129Z,87
2023-01-22T15:46:28.428Z,82
2023-01-22T15:47:42.683Z,87
2023-01-22T15:50:11.133Z,73
2023-01-22T15:51:25.368Z,60
2023-01-22T15:52:39.654Z,59
2023-01-22T15:53:53.891Z,51
2023-01-22T15:55:08.125Z,47
2023-01-22T15:56:22.344Z,34
2023-01-22T15:57:36.586Z,32
2023-01-22T15:58:50.933Z,26
2023-01-22T16:00:05.226Z,18
2023-01-22T16:01:18.521Z,18
2023-01-22T16:02:32.737Z,18
2023-01-22T16:03:47.036Z,16
2023-01-22T16:06:15.514Z,10
2023-01-22T16:07:29.744Z,10
2023-01-22T16:08:43.969Z,7
2023-01-22T16:09:58.262Z,5
2023-01-22T16:11:12.508Z,8
2023-01-22T16:12:26.730Z,6
2023-01-22T16:13:40.968Z,7
2023-01-22T16:14:55.192Z,7
2023-01-22T16:16:09.495Z,5
2023-01-22T16:17:23.723Z,3
2023-01-22T16:18:37.952Z,2
2023-01-22T16:19:52.185Z,1
2023-01-22T16:21:06.416Z,1
2023-01-22T16:22:20.769Z,0
2023-01-22T16:23:35.023Z,2
2023-01-22T16:26:03.567Z,0
2023-01-22T16:27:17.865Z,0
2023-01-22T16:28:32.213Z,2
2023-01-22T16:29:46.541Z,0
2023-01-22T16:31:00.822Z,0
2023-01-22T16:32:15.120Z,1
2023-01-22T16:33:29.407Z,1
2023-01-22T16:34:43.695Z,1
2023-01-22T16:35:56.997Z,1
2023-01-22T16:37:11.222Z,1
2023-01-22T16:38:25.510Z,1
2023-01-22T16:39:39.764Z,1
2023-01-22T16:40:53.985Z,1
2023-01-22T16:42:08.222Z,1
2023-01-22T16:44:36.728Z,1
2023-01-22T16:45:51.030Z,0
2023-01-22T16:47:05.313Z,0
2023-01-22T16:48:19.589Z,0
2023-01-22T16:49:33.991Z,0
2023-01-22T16:50:48.327Z,0
2023-01-22T16:52:02.607Z,0
2023-01-22T16:53:16.877Z,0
2023-01-22T16:54:31.286Z,0
2023-01-22T16:55:45.623Z,0
2023-01-22T16:56:59.891Z,0
2023-01-22T16:58:14.184Z,0
2023-01-22T16:59:28.581Z,0
2023-01-22T17:00:42.901Z,0
2023-01-22T17:01:57.198Z,0
2023-01-22T17:03:11.475Z,0
2023-01-22T17:04:25.872Z,0
2023-01-22T17:05:40.207Z,0
2023-01-22T17:06:54.536Z,0
2023-01-22T17:08:07.871Z,1
2023-01-22T17:09:22.214Z,0
2023-01-22T17:10:35.565Z,0
2023-01-22T17:11:49.848Z,0
2023-01-22T17:13:04.254Z,0
2023-01-22T17:14:18.569Z,0
2023-01-22T17:15:32.851Z,0
2023-01-22T17:16:47.129Z,0
2023-01-22T17:18:01.545Z,0
2023-01-22T17:19:15.865Z,0
2023-01-22T17:20:30.143Z,0
2023-01-22T17:21:44.421Z,0
2023-01-22T17:22:58.840Z,0
2023-01-22T17:24:13.161Z,0
2023-01-22T17:25:27.437Z,0
2023-01-22T17:26:41.725Z,0
2023-01-22T17:27:56.125Z,0
2023-01-22T17:29:10.438Z,0
2023-01-22T17:30:24.719Z,0
2023-01-22T17:31:39.009Z,0
2023-01-22T17:32:53.411Z,0
2023-01-22T17:34:07.732Z,0
2023-01-22T17:35:22.017Z,0
2023-01-22T17:36:36.304Z,0
2023-01-22T17:37:50.709Z,0
2023-01-22T17:39:05.034Z,0
2023-01-22T17:40:19.310Z,0
2023-01-22T17:41:33.651Z,0
2023-01-22T17:42:48.055Z,0
2023-01-22T17:44:02.387Z,0
2023-01-22T17:45:15.751Z,0
2023-01-22T17:46:30.034Z,0
2023-01-22T17:47:44.447Z,0
2023-01-22T17:48:58.760Z,0
2023-01-22T17:50:13.048Z,0
2023-01-22T17:51:27.323Z,0
2023-01-22T17:52:41.730Z,0
2023-01-22T17:53:56.043Z,0
2023-01-22T17:55:10.342Z,0
2023-01-22T17:56:24.614Z,0
2023-01-22T17:57:39.031Z,0
2023-01-22T17:58:53.337Z,0